createdAt,value
2017-09-30T00:00:07.362Z,99.02
2017-09-30T00:01:07.256Z,98.79
2017-09-30T00:02:08.501Z,98.76
2017-09-30T00:03:08.541Z,99.51
2017-09-30T00:04:08.571Z,100.00
2017-09-30T00:05:08.510Z,100.00
2017-09-30T00:06:08.037Z,100.00
2017-09-30T00:07:07.257Z,100.00
2017-09-30T00:08:07.291Z,100.00
2017-09-30T00:09:07.319Z,100.00
2017-09-30T00:10:07.348Z,100.00
2017-09-30T00:11:07.282Z,100.00
2017-09-30T00:12:07.274Z,100.00
2017-09-30T00:13:07.328Z,100.00
2017-09-30T00:14:07.257Z,100.00
2017-09-30T00:15:07.406Z,100.00
2017-09-30T00:16:07.328Z,100.00
2017-09-30T00:17:07.983Z,100.00
2017-09-30T00:18:08.515Z,100.00
2017-09-30T00:19:08.746Z,100.00
2017-09-30T00:20:08.685Z,100.00
2017-09-30T00:21:07.897Z,100.00
2017-09-30T00:22:07.961Z,100.00
2017-09-30T00:23:07.988Z,100.00
2017-09-30T00:24:08.021Z,100.00
2017-09-30T00:25:07.341Z,100.00
2017-09-30T00:26:07.389Z,100.00
2017-09-30T00:27:07.524Z,99.24
2017-09-30T00:28:07.544Z,100.00
2017-09-30T00:29:07.379Z,100.00
2017-09-30T00:30:07.535Z,100.00
2017-09-30T00:31:07.458Z,100.00
2017-09-30T00:32:07.410Z,100.00
2017-09-30T00:33:07.429Z,100.00
2017-09-30T00:34:08.169Z,100.00
2017-09-30T00:35:08.101Z,100.00
2017-09-30T00:36:08.244Z,100.00
2017-09-30T00:37:08.581Z,100.00
2017-09-30T00:38:08.731Z,100.00
2017-09-30T00:39:08.175Z,100.00
2017-09-30T00:40:07.410Z,100.00
2017-09-30T00:41:07.452Z,100.00
2017-09-30T00:42:07.401Z,100.00
2017-09-30T00:43:07.450Z,100.00
2017-09-30T00:44:07.521Z,100.00
2017-09-30T00:45:07.440Z,100.00
2017-09-30T00:46:07.383Z,100.00
2017-09-30T00:47:07.538Z,100.00
2017-09-30T00:48:07.470Z,100.00
2017-09-30T00:49:07.494Z,100.00
2017-09-30T00:50:07.436Z,100.00
2017-09-30T00:51:08.666Z,100.00
2017-09-30T00:52:08.594Z,99.99
2017-09-30T00:53:08.631Z,99.77
2017-09-30T00:54:08.759Z,99.65
2017-09-30T00:55:08.397Z,98.82
2017-09-30T00:56:07.399Z,98.86
2017-09-30T00:57:07.422Z,98.84
2017-09-30T00:58:07.458Z,98.52
2017-09-30T00:59:07.496Z,99.01
2017-09-30T01:03:10.960Z,98.80
2017-09-30T01:03:11.970Z,98.71
2017-09-30T01:03:12.979Z,99.69
2017-09-30T01:03:13.998Z,99.27
2017-09-30T01:05:51.917Z,99.34
2017-09-30T01:05:53.037Z,98.95
2017-09-30T01:08:30.433Z,99.68
2017-09-30T01:08:31.239Z,99.51
2017-09-30T01:08:32.053Z,99.26
2017-09-30T01:09:07.533Z,99.35
2017-09-30T01:11:56.886Z,99.44
2017-09-30T01:11:57.897Z,99.77
2017-09-30T01:14:29.795Z,99.54
2017-09-30T01:14:30.599Z,99.45
2017-09-30T01:14:31.413Z,99.85
2017-09-30T01:15:07.599Z,100.00
2017-09-30T01:18:01.029Z,100.00
2017-09-30T01:18:02.043Z,100.00
2017-09-30T01:21:07.910Z,99.91
2017-09-30T01:21:08.924Z,99.68
2017-09-30T01:21:09.835Z,99.70
2017-09-30T01:21:10.953Z,99.60
2017-09-30T01:24:01.007Z,99.60
2017-09-30T01:24:02.931Z,99.77
2017-09-30T01:26:33.930Z,100.00
2017-09-30T01:26:35.349Z,100.00
2017-09-30T01:26:36.168Z,100.00
2017-09-30T01:27:07.540Z,100.00
2017-09-30T01:30:01.278Z,100.00
2017-09-30T01:30:03.004Z,100.00
2017-09-30T01:32:33.018Z,100.00
2017-09-30T01:32:33.830Z,100.00
2017-09-30T01:32:34.648Z,100.00
2017-09-30T01:35:41.812Z,100.00
2017-09-30T01:35:42.921Z,100.00
2017-09-30T01:35:43.935Z,99.85
2017-09-30T01:38:31.054Z,100.00
2017-09-30T01:38:31.856Z,100.00
2017-09-30T01:38:32.684Z,100.00
2017-09-30T01:39:07.546Z,100.00
2017-09-30T01:41:42.873Z,100.00
2017-09-30T01:41:44.291Z,100.00
2017-09-30T01:45:07.894Z,100.00
2017-09-30T01:45:08.713Z,100.00
2017-09-30T01:45:09.520Z,100.00
2017-09-30T01:45:10.438Z,100.00
2017-09-30T01:47:49.932Z,100.00
2017-09-30T01:47:50.947Z,100.00
2017-09-30T01:50:30.842Z,100.00
2017-09-30T01:50:31.657Z,100.00
2017-09-30T01:50:32.263Z,100.00
2017-09-30T01:51:07.642Z,100.00
2017-09-30T01:53:44.228Z,100.00
2017-09-30T01:53:45.049Z,100.00
2017-09-30T01:56:40.787Z,100.00
2017-09-30T01:56:42.215Z,100.00
2017-09-30T01:56:43.126Z,100.00
2017-09-30T01:57:07.681Z,100.00
2017-09-30T01:59:44.973Z,100.00
2017-09-30T01:59:46.085Z,100.00
2017-09-30T02:00:07.657Z,100.00
2017-09-30T02:01:08.884Z,100.00
2017-09-30T02:02:07.696Z,100.00
2017-09-30T02:03:07.741Z,100.00
2017-09-30T02:04:07.773Z,100.00
2017-09-30T02:05:07.717Z,100.00
2017-09-30T02:06:07.765Z,100.00
2017-09-30T02:07:07.700Z,100.00
2017-09-30T02:08:07.737Z,100.00
2017-09-30T02:09:07.957Z,100.00
2017-09-30T02:10:07.716Z,100.00
2017-09-30T02:11:08.868Z,100.00
2017-09-30T02:12:08.393Z,100.00
2017-09-30T02:13:08.929Z,100.00
2017-09-30T02:14:08.985Z,100.00
2017-09-30T02:15:09.321Z,100.00
2017-09-30T02:16:08.956Z,100.00
2017-09-30T02:17:08.477Z,100.00
2017-09-30T02:18:07.688Z,100.00
2017-09-30T02:19:07.726Z,100.00
2017-09-30T02:20:07.753Z,100.00
2017-09-30T02:21:07.693Z,100.00
2017-09-30T02:22:07.736Z,100.00
2017-09-30T02:23:07.756Z,100.00
2017-09-30T02:24:07.794Z,100.00
2017-09-30T02:25:07.827Z,100.00
2017-09-30T02:26:07.786Z,100.00
2017-09-30T02:27:07.815Z,100.00
2017-09-30T02:28:07.772Z,100.00
2017-09-30T02:29:09.016Z,100.00
2017-09-30T02:30:08.565Z,100.00
2017-09-30T02:31:08.938Z,100.00
2017-09-30T02:32:09.272Z,100.00
2017-09-30T02:33:08.420Z,100.00
2017-09-30T02:34:07.751Z,100.00
2017-09-30T02:35:07.789Z,100.00
2017-09-30T02:36:07.826Z,100.00
2017-09-30T02:37:07.778Z,100.00
2017-09-30T02:38:07.812Z,100.00
2017-09-30T02:39:07.840Z,100.00
2017-09-30T02:40:07.782Z,100.00
2017-09-30T02:41:07.804Z,100.00
2017-09-30T02:42:07.826Z,100.00
2017-09-30T02:43:07.764Z,100.00
2017-09-30T02:44:09.005Z,100.00
2017-09-30T02:45:09.049Z,100.00
2017-09-30T02:46:08.994Z,100.00
2017-09-30T02:47:09.419Z,100.00
2017-09-30T02:48:09.138Z,100.00
2017-09-30T02:49:08.460Z,100.00
2017-09-30T02:50:08.596Z,100.00
2017-09-30T02:51:07.821Z,100.00
2017-09-30T02:52:07.949Z,100.00
2017-09-30T02:53:07.882Z,100.00
2017-09-30T02:54:07.912Z,100.00
2017-09-30T02:55:07.936Z,100.00
2017-09-30T02:56:07.866Z,100.00
2017-09-30T02:57:07.899Z,100.00
2017-09-30T02:58:07.830Z,100.00
2017-09-30T02:59:08.464Z,100.00
2017-09-30T03:00:08.691Z,100.00
2017-09-30T03:01:08.724Z,100.00
2017-09-30T03:02:08.766Z,100.00
2017-09-30T03:03:09.112Z,100.00
2017-09-30T03:04:09.046Z,100.00
2017-09-30T03:05:09.273Z,100.00
2017-09-30T03:06:08.493Z,100.00
2017-09-30T03:07:08.631Z,100.00
2017-09-30T03:08:07.853Z,100.00
2017-09-30T03:09:07.875Z,100.00
2017-09-30T03:10:07.912Z,100.00
2017-09-30T03:11:07.939Z,100.00
2017-09-30T03:12:07.874Z,100.00
2017-09-30T03:13:07.903Z,100.00
2017-09-30T03:14:07.932Z,100.00
2017-09-30T03:15:07.963Z,100.00
2017-09-30T03:16:08.018Z,100.00
2017-09-30T03:17:07.940Z,100.00
2017-09-30T03:18:08.681Z,100.00
2017-09-30T03:19:09.121Z,100.00
2017-09-30T03:20:09.463Z,100.00
2017-09-30T03:21:09.202Z,100.00
2017-09-30T03:22:09.428Z,100.00
2017-09-30T03:23:08.550Z,100.00
2017-09-30T03:24:07.977Z,100.00
2017-09-30T03:25:08.021Z,100.00
2017-09-30T03:26:07.971Z,100.00
2017-09-30T03:27:08.007Z,100.00
2017-09-30T03:28:07.944Z,100.00
2017-09-30T03:29:07.988Z,100.00
2017-09-30T03:30:08.132Z,100.00
2017-09-30T03:31:08.074Z,100.00
2017-09-30T03:32:08.025Z,100.00
2017-09-30T03:33:07.956Z,100.00
2017-09-30T03:33:58.667Z,100.00
2017-09-30T03:36:13.744Z,100.00
2017-09-30T03:36:14.650Z,100.00
2017-09-30T03:36:15.466Z,100.00
2017-09-30T03:37:08.086Z,100.00
2017-09-30T03:38:09.223Z,100.00
2017-09-30T03:39:08.683Z,100.00
2017-09-30T03:40:08.028Z,100.00
2017-09-30T03:41:08.049Z,100.00
2017-09-30T03:42:08.102Z,100.00
2017-09-30T03:43:08.136Z,100.00
2017-09-30T03:44:08.055Z,100.00
2017-09-30T03:45:08.115Z,100.00
2017-09-30T03:46:08.049Z,100.00
2017-09-30T03:47:08.087Z,100.00
2017-09-30T03:48:08.033Z,100.00
2017-09-30T03:49:08.667Z,100.00
2017-09-30T03:50:08.693Z,100.00
2017-09-30T03:51:09.233Z,100.00
2017-09-30T03:52:09.383Z,100.00
2017-09-30T03:53:09.312Z,100.00
2017-09-30T03:54:09.351Z,100.00
2017-09-30T03:55:08.690Z,100.00
2017-09-30T03:56:08.033Z,100.00
2017-09-30T03:57:08.100Z,100.00
2017-09-30T03:58:08.034Z,100.00
2017-09-30T03:59:08.078Z,100.00
2017-09-30T04:00:08.110Z,100.00
2017-09-30T04:01:08.087Z,100.00
2017-09-30T04:02:08.118Z,100.00
2017-09-30T04:03:08.146Z,100.00
2017-09-30T04:04:08.209Z,100.00
2017-09-30T04:05:08.054Z,100.00
2017-09-30T04:06:08.103Z,100.00
2017-09-30T04:07:08.132Z,100.00
2017-09-30T04:08:08.873Z,100.00
2017-09-30T04:09:09.311Z,100.00
2017-09-30T04:10:09.395Z,100.00
2017-09-30T04:11:08.722Z,100.00
2017-09-30T04:12:08.752Z,100.00
2017-09-30T04:13:09.007Z,100.00
2017-09-30T04:14:08.130Z,100.00
2017-09-30T04:15:08.169Z,100.00
2017-09-30T04:16:08.115Z,100.00
2017-09-30T04:17:08.148Z,100.00
2017-09-30T04:18:08.100Z,100.00
2017-09-30T04:19:08.243Z,100.00
2017-09-30T04:20:08.196Z,100.00
2017-09-30T04:21:08.229Z,100.00
2017-09-30T04:22:08.158Z,100.00
2017-09-30T04:23:09.406Z,100.00
2017-09-30T04:24:09.444Z,100.00
2017-09-30T04:25:10.076Z,100.00
2017-09-30T04:26:08.188Z,99.90
2017-09-30T04:27:09.431Z,100.00
2017-09-30T04:28:08.752Z,100.00
2017-09-30T04:29:08.184Z,100.00
2017-09-30T04:30:08.229Z,99.69
2017-09-30T04:31:08.169Z,99.85
2017-09-30T04:32:08.218Z,99.46
2017-09-30T04:33:08.162Z,99.36
2017-09-30T04:34:08.201Z,99.43
2017-09-30T04:35:08.251Z,99.42
2017-09-30T04:36:08.189Z,99.11
2017-09-30T04:37:08.227Z,99.24
2017-09-30T04:38:08.250Z,99.20
2017-09-30T04:39:08.986Z,99.09
2017-09-30T04:40:09.234Z,99.06
2017-09-30T04:41:09.468Z,99.34
2017-09-30T04:42:09.515Z,99.43
2017-09-30T04:43:09.480Z,99.33
2017-09-30T04:44:08.824Z,98.78
2017-09-30T04:45:08.195Z,98.70
2017-09-30T04:46:08.926Z,100.00
2017-09-30T04:47:08.274Z,99.17
2017-09-30T04:48:08.209Z,98.39
2017-09-30T04:49:08.270Z,98.96
2017-09-30T04:50:08.324Z,99.14
2017-09-30T04:51:08.243Z,99.05
2017-09-30T04:52:08.282Z,99.22
2017-09-30T04:53:08.265Z,98.97
2017-09-30T04:54:08.328Z,98.80
2017-09-30T04:55:08.289Z,98.83
2017-09-30T04:56:08.314Z,98.50
2017-09-30T04:57:09.054Z,98.49
2017-09-30T04:58:09.594Z,98.39
2017-09-30T04:59:09.535Z,98.43
2017-09-30T05:00:09.700Z,98.53
2017-09-30T05:01:08.928Z,98.45
2017-09-30T05:02:08.278Z,98.61
2017-09-30T05:03:08.309Z,98.41
2017-09-30T05:04:08.355Z,98.37
2017-09-30T05:05:08.297Z,98.59
2017-09-30T05:06:08.311Z,98.20
2017-09-30T05:07:08.270Z,98.00
2017-09-30T05:08:08.359Z,97.93
2017-09-30T05:09:08.358Z,98.40
2017-09-30T05:10:08.335Z,98.07
2017-09-30T05:11:08.313Z,98.10
2017-09-30T05:12:09.059Z,97.98
2017-09-30T05:13:09.554Z,98.08
2017-09-30T05:14:09.144Z,98.22
2017-09-30T05:15:09.503Z,98.33
2017-09-30T05:16:09.900Z,98.07
2017-09-30T05:17:09.049Z,98.07
2017-09-30T05:18:09.112Z,98.01
2017-09-30T05:19:08.358Z,98.22
2017-09-30T05:20:08.342Z,98.20
2017-09-30T05:21:08.304Z,98.22
2017-09-30T05:22:08.421Z,97.76
2017-09-30T05:23:08.384Z,98.21
2017-09-30T05:24:08.336Z,98.14
2017-09-30T05:25:08.391Z,98.50
2017-09-30T05:26:08.336Z,98.42
2017-09-30T05:27:08.400Z,98.44
2017-09-30T05:28:09.554Z,98.29
2017-09-30T05:29:09.563Z,97.97
2017-09-30T05:30:09.146Z,98.14
2017-09-30T05:31:09.580Z,98.47
2017-09-30T05:32:09.655Z,98.15
2017-09-30T05:33:08.950Z,98.42
2017-09-30T05:34:08.339Z,98.03
2017-09-30T05:35:08.407Z,98.30
2017-09-30T05:36:08.407Z,98.40
2017-09-30T05:37:08.411Z,98.46
2017-09-30T05:38:08.373Z,98.39
2017-09-30T05:39:08.387Z,98.75
2017-09-30T05:40:08.464Z,98.36
2017-09-30T05:41:08.582Z,98.18
2017-09-30T05:42:08.502Z,98.63
2017-09-30T05:43:08.486Z,98.25
2017-09-30T05:44:08.420Z,98.07
2017-09-30T05:45:09.672Z,98.18
2017-09-30T05:46:09.241Z,98.31
2017-09-30T05:47:09.701Z,98.04
2017-09-30T05:48:09.676Z,98.03
2017-09-30T05:49:09.812Z,98.86
2017-09-30T05:50:09.262Z,97.63
2017-09-30T05:51:09.104Z,97.93
2017-09-30T05:52:08.476Z,96.21
2017-09-30T05:53:08.515Z,96.95
2017-09-30T05:54:08.671Z,97.29
2017-09-30T05:55:08.452Z,97.55
2017-09-30T05:56:08.485Z,97.30
2017-09-30T05:57:08.450Z,97.38
2017-09-30T05:58:08.502Z,97.22
2017-09-30T05:59:08.523Z,96.82
2017-09-30T06:00:08.453Z,96.78
2017-09-30T06:01:09.703Z,96.42
2017-09-30T06:02:09.433Z,96.31
2017-09-30T06:03:09.768Z,96.48
2017-09-30T06:04:09.898Z,96.64
2017-09-30T06:05:09.845Z,96.56
2017-09-30T06:06:09.094Z,96.07
2017-09-30T06:07:08.509Z,97.59
2017-09-30T06:08:08.529Z,96.29
2017-09-30T06:09:08.566Z,96.89
2017-09-30T06:10:08.603Z,96.31
2017-09-30T06:11:08.568Z,96.34
2017-09-30T06:12:08.600Z,96.35
2017-09-30T06:13:08.538Z,96.90
2017-09-30T06:14:08.558Z,95.76
2017-09-30T06:15:08.485Z,95.87
2017-09-30T06:16:09.126Z,95.66
2017-09-30T06:17:09.462Z,95.61
2017-09-30T06:18:09.811Z,95.14
2017-09-30T06:19:09.750Z,95.30
2017-09-30T06:20:09.818Z,95.51
2017-09-30T06:21:09.233Z,94.80
2017-09-30T06:22:09.368Z,94.97
2017-09-30T06:23:09.195Z,94.89
2017-09-30T06:24:08.545Z,95.29
2017-09-30T06:25:08.575Z,95.46
2017-09-30T06:26:08.603Z,94.98
2017-09-30T06:27:08.657Z,94.89
2017-09-30T06:28:08.473Z,94.82
2017-09-30T06:29:08.542Z,93.55
2017-09-30T06:30:08.575Z,94.10
2017-09-30T06:31:08.605Z,94.18
2017-09-30T06:32:08.663Z,94.70
2017-09-30T06:33:08.592Z,95.10
2017-09-30T06:34:09.323Z,95.52
2017-09-30T06:35:09.381Z,95.47
2017-09-30T06:36:09.429Z,94.82
2017-09-30T06:37:09.916Z,95.08
2017-09-30T06:38:09.947Z,96.28
2017-09-30T06:39:09.901Z,94.19
2017-09-30T06:40:09.665Z,94.21
2017-09-30T06:41:10.098Z,93.93
2017-09-30T06:42:08.688Z,93.67
2017-09-30T06:43:08.637Z,94.06
2017-09-30T06:44:08.773Z,95.11
2017-09-30T06:45:08.892Z,94.79
2017-09-30T06:46:08.665Z,94.57
2017-09-30T06:47:08.934Z,94.82
2017-09-30T06:48:08.636Z,94.71
2017-09-30T06:49:08.691Z,95.15
2017-09-30T06:50:08.764Z,94.50
2017-09-30T06:51:08.932Z,94.89
2017-09-30T06:52:08.685Z,95.22
2017-09-30T06:53:10.129Z,95.06
2017-09-30T06:54:09.894Z,95.68
2017-09-30T06:55:09.525Z,95.25
2017-09-30T06:56:09.977Z,95.16
2017-09-30T06:57:09.328Z,95.14
2017-09-30T06:58:08.668Z,94.80
2017-09-30T06:59:08.713Z,94.71
2017-09-30T07:00:08.761Z,94.63
2017-09-30T07:01:08.686Z,95.17
2017-09-30T07:02:08.727Z,94.85
2017-09-30T07:03:08.672Z,94.72
2017-09-30T07:04:08.717Z,94.54
2017-09-30T07:05:08.742Z,94.86
2017-09-30T07:06:08.687Z,94.96
2017-09-30T07:07:08.715Z,94.94
2017-09-30T07:08:09.876Z,94.16
2017-09-30T07:09:10.016Z,94.27
2017-09-30T07:10:09.691Z,94.41
2017-09-30T07:11:09.213Z,94.35
2017-09-30T07:12:09.958Z,94.26
2017-09-30T07:13:09.610Z,94.16
2017-09-30T07:14:09.531Z,93.84
2017-09-30T07:15:08.777Z,94.40
2017-09-30T07:16:08.813Z,95.05
2017-09-30T07:17:08.752Z,94.58
2017-09-30T07:18:08.698Z,93.72
2017-09-30T07:19:08.766Z,93.90
2017-09-30T07:20:08.797Z,93.02
2017-09-30T07:21:08.792Z,92.32
2017-09-30T07:22:08.709Z,91.34
2017-09-30T07:23:09.377Z,89.12
2017-09-30T07:24:09.985Z,88.33
2017-09-30T07:25:09.634Z,87.79
2017-09-30T07:26:10.009Z,86.56
2017-09-30T07:27:09.969Z,86.59
2017-09-30T07:28:10.117Z,85.24
2017-09-30T07:29:09.353Z,85.68
2017-09-30T07:30:08.777Z,86.61
2017-09-30T07:31:08.812Z,85.73
2017-09-30T07:32:08.843Z,84.71
2017-09-30T07:33:08.775Z,85.07
2017-09-30T07:34:08.822Z,85.00
2017-09-30T07:35:08.881Z,85.20
2017-09-30T07:36:08.807Z,82.77
2017-09-30T07:37:08.843Z,83.54
2017-09-30T07:38:08.770Z,83.04
2017-09-30T07:39:08.799Z,83.96
2017-09-30T07:40:08.818Z,82.44
2017-09-30T07:41:08.850Z,82.16
2017-09-30T07:42:09.987Z,81.59
2017-09-30T07:43:10.127Z,81.34
2017-09-30T07:44:10.081Z,80.11
2017-09-30T07:45:09.520Z,78.51
2017-09-30T07:46:09.554Z,79.68
2017-09-30T07:47:09.499Z,79.76
2017-09-30T07:48:08.827Z,79.09
2017-09-30T07:49:08.877Z,77.86
2017-09-30T07:50:08.902Z,78.04
2017-09-30T07:51:08.939Z,76.83
2017-09-30T07:52:08.761Z,78.58
2017-09-30T07:53:08.901Z,79.27
2017-09-30T07:54:08.850Z,79.45
2017-09-30T07:55:08.882Z,77.86
2017-09-30T07:56:08.892Z,77.85
2017-09-30T07:57:09.518Z,79.65
2017-09-30T07:58:10.079Z,80.56
2017-09-30T07:59:10.123Z,80.00
2017-09-30T08:00:09.869Z,81.36
2017-09-30T08:01:10.194Z,79.61
2017-09-30T08:02:09.425Z,80.49
2017-09-30T08:03:10.174Z,79.34
2017-09-30T08:04:10.209Z,80.60
2017-09-30T08:05:08.920Z,78.05
2017-09-30T08:06:08.846Z,76.18
2017-09-30T08:07:08.889Z,75.65
2017-09-30T08:08:08.928Z,76.33
2017-09-30T08:09:08.869Z,74.93
2017-09-30T08:10:08.910Z,72.41
2017-09-30T08:11:08.951Z,72.13
2017-09-30T08:12:08.985Z,71.82
2017-09-30T08:13:08.919Z,72.14
2017-09-30T08:14:09.543Z,73.06
2017-09-30T08:15:09.679Z,73.27
2017-09-30T08:16:10.112Z,72.14
2017-09-30T08:17:10.162Z,71.28
2017-09-30T08:18:09.786Z,70.00
2017-09-30T08:19:09.517Z,73.11
2017-09-30T08:20:10.079Z,71.97
2017-09-30T08:21:08.890Z,70.19
2017-09-30T08:22:08.927Z,70.47
2017-09-30T08:23:09.084Z,71.38
2017-09-30T08:24:08.915Z,72.59
2017-09-30T08:25:09.015Z,71.63
2017-09-30T08:26:08.970Z,70.82
2017-09-30T08:27:08.997Z,70.69
2017-09-30T08:28:09.129Z,69.51
2017-09-30T08:29:09.006Z,70.29
2017-09-30T08:30:09.048Z,72.20
2017-09-30T08:31:09.026Z,71.35
2017-09-30T08:32:09.054Z,71.39
2017-09-30T08:33:10.302Z,72.94
2017-09-30T08:34:10.243Z,71.66
2017-09-30T08:35:10.289Z,72.31
2017-09-30T08:36:09.631Z,72.54
2017-09-30T08:37:08.994Z,73.37
2017-09-30T08:38:08.990Z,72.80
2017-09-30T08:39:09.008Z,73.25
2017-09-30T08:40:09.084Z,71.77
2017-09-30T08:41:09.060Z,71.57
2017-09-30T08:42:09.031Z,70.93
2017-09-30T08:43:08.959Z,71.03
2017-09-30T08:44:09.015Z,71.50
2017-09-30T08:45:09.069Z,71.61
2017-09-30T08:46:09.002Z,71.07
2017-09-30T08:47:09.656Z,70.63
2017-09-30T08:48:09.713Z,70.61
2017-09-30T08:49:10.255Z,70.61
2017-09-30T08:50:09.923Z,71.78
2017-09-30T08:51:10.375Z,70.67
2017-09-30T08:52:09.710Z,69.85
2017-09-30T08:53:09.658Z,71.25
2017-09-30T08:54:09.691Z,70.72
2017-09-30T08:55:09.137Z,69.34
2017-09-30T08:56:09.063Z,69.23
2017-09-30T08:57:09.132Z,69.45
2017-09-30T08:58:09.090Z,67.84
2017-09-30T08:59:09.054Z,69.03
2017-09-30T09:00:09.095Z,68.01
2017-09-30T09:01:09.153Z,68.39
2017-09-30T09:02:09.098Z,67.16
2017-09-30T09:03:09.075Z,67.26
2017-09-30T09:04:09.155Z,66.62
2017-09-30T09:05:09.941Z,68.63
2017-09-30T09:06:10.425Z,67.93
2017-09-30T09:07:10.372Z,68.06
2017-09-30T09:08:10.357Z,68.09
2017-09-30T09:09:09.702Z,68.01
2017-09-30T09:10:09.951Z,67.09
2017-09-30T09:11:09.110Z,67.46
2017-09-30T09:12:09.144Z,67.81
2017-09-30T09:13:09.167Z,68.14
2017-09-30T09:14:09.227Z,68.61
2017-09-30T09:15:09.180Z,67.45
2017-09-30T09:16:09.142Z,67.98
2017-09-30T09:17:09.137Z,67.92
2017-09-30T09:18:09.150Z,68.15
2017-09-30T09:19:09.116Z,68.12
2017-09-30T09:20:09.206Z,69.31
2017-09-30T09:21:09.175Z,68.79
2017-09-30T09:22:10.431Z,68.64
2017-09-30T09:23:10.534Z,68.53
2017-09-30T09:24:10.377Z,70.52
2017-09-30T09:25:10.904Z,69.86
2017-09-30T09:26:10.441Z,72.47
2017-09-30T09:27:09.799Z,69.31
2017-09-30T09:28:09.140Z,69.07
2017-09-30T09:29:09.174Z,68.57
2017-09-30T09:30:09.155Z,70.07
2017-09-30T09:31:09.212Z,69.08
2017-09-30T09:32:09.217Z,70.02
2017-09-30T09:33:09.209Z,70.26
2017-09-30T09:34:09.276Z,69.10
2017-09-30T09:35:09.176Z,68.69
2017-09-30T09:36:09.253Z,67.85
2017-09-30T09:37:09.171Z,68.59
2017-09-30T09:38:09.929Z,69.23
2017-09-30T09:39:10.374Z,69.27
2017-09-30T09:40:10.018Z,67.76
2017-09-30T09:41:10.657Z,69.35
2017-09-30T09:42:10.593Z,67.14
2017-09-30T09:43:10.326Z,66.92
2017-09-30T09:44:09.950Z,69.08
2017-09-30T09:45:10.014Z,68.26
2017-09-30T09:46:09.264Z,68.04
2017-09-30T09:47:09.330Z,69.70
2017-09-30T09:48:09.225Z,68.24
2017-09-30T09:49:09.314Z,68.29
2017-09-30T09:50:09.272Z,68.08
2017-09-30T09:51:09.260Z,69.04
2017-09-30T09:52:09.310Z,67.89
2017-09-30T09:53:09.258Z,66.01
2017-09-30T09:54:09.323Z,64.44
2017-09-30T09:55:09.369Z,66.54
2017-09-30T09:56:09.621Z,66.16
2017-09-30T09:57:09.184Z,66.21
2017-09-30T09:58:09.888Z,66.61
2017-09-30T09:59:10.582Z,67.25
2017-09-30T10:00:10.239Z,67.06
2017-09-30T10:01:11.006Z,66.63
2017-09-30T10:02:10.001Z,66.85
2017-09-30T10:03:09.249Z,66.76
2017-09-30T10:04:09.308Z,67.86
2017-09-30T10:05:09.315Z,65.90
2017-09-30T10:06:09.393Z,67.75
2017-09-30T10:07:09.450Z,68.25
2017-09-30T10:08:09.346Z,67.12
2017-09-30T10:09:09.342Z,66.44
2017-09-30T10:10:09.340Z,65.84
2017-09-30T10:11:09.309Z,69.36
2017-09-30T10:12:09.304Z,65.93
2017-09-30T10:13:10.194Z,66.56
2017-09-30T10:14:10.107Z,68.26
2017-09-30T10:15:10.219Z,66.13
2017-09-30T10:16:11.083Z,66.67
2017-09-30T10:17:10.032Z,65.16
2017-09-30T10:18:10.061Z,65.64
2017-09-30T10:19:10.756Z,65.11
2017-09-30T10:20:10.450Z,66.09
2017-09-30T10:21:09.427Z,64.76
2017-09-30T10:22:09.373Z,63.59
2017-09-30T10:23:09.598Z,65.05
2017-09-30T10:24:09.322Z,63.01
2017-09-30T10:25:09.404Z,66.26
2017-09-30T10:26:09.348Z,64.28
2017-09-30T10:27:09.440Z,62.08
2017-09-30T10:28:09.398Z,64.61
2017-09-30T10:29:10.048Z,63.29
2017-09-30T10:30:10.239Z,62.70
2017-09-30T10:31:10.729Z,62.19
2017-09-30T10:32:09.878Z,63.09
2017-09-30T10:33:10.698Z,62.91
2017-09-30T10:34:10.081Z,63.11
2017-09-30T10:35:10.370Z,62.31
2017-09-30T10:36:12.010Z,64.41
2017-09-30T10:37:09.359Z,61.75
2017-09-30T10:38:10.033Z,62.09
2017-09-30T10:39:10.085Z,60.93
2017-09-30T10:40:10.325Z,63.99
2017-09-30T10:41:09.983Z,62.69
2017-09-30T10:42:10.042Z,63.64
2017-09-30T10:43:10.097Z,62.59
2017-09-30T10:44:10.046Z,61.13
2017-09-30T10:45:10.320Z,62.12
2017-09-30T10:46:13.195Z,61.35
2017-09-30T10:47:09.472Z,62.38
2017-09-30T10:48:10.454Z,61.55
2017-09-30T10:49:11.146Z,60.51
2017-09-30T10:50:11.174Z,63.28
2017-09-30T10:51:10.742Z,61.69
2017-09-30T10:52:10.293Z,61.94
2017-09-30T10:53:09.448Z,62.06
2017-09-30T10:54:09.415Z,61.65
2017-09-30T10:55:09.468Z,60.94
2017-09-30T10:56:09.438Z,61.02
2017-09-30T10:57:09.536Z,61.82
2017-09-30T10:58:09.525Z,61.62
2017-09-30T10:59:09.459Z,61.61
2017-09-30T11:00:09.542Z,62.11
2017-09-30T11:01:09.570Z,62.07
2017-09-30T11:02:22.365Z,62.85
2017-09-30T11:03:09.505Z,64.49
2017-09-30T11:04:10.701Z,63.58
2017-09-30T11:05:10.390Z,66.11
2017-09-30T11:06:10.742Z,63.81
2017-09-30T11:07:10.804Z,66.04
2017-09-30T11:08:10.333Z,64.19
2017-09-30T11:09:09.446Z,63.78
2017-09-30T11:10:09.531Z,63.87
2017-09-30T11:11:09.541Z,64.65
2017-09-30T11:12:09.467Z,62.73
2017-09-30T11:13:09.571Z,63.54
2017-09-30T11:14:09.534Z,63.50
2017-09-30T11:15:09.520Z,62.43
2017-09-30T11:16:09.577Z,62.59
2017-09-30T11:17:09.543Z,60.54
2017-09-30T11:18:09.622Z,63.53
2017-09-30T11:19:09.596Z,62.42
2017-09-30T11:20:10.441Z,62.22
2017-09-30T11:21:10.587Z,63.47
2017-09-30T11:22:10.854Z,61.34
2017-09-30T11:23:10.827Z,62.94
2017-09-30T11:24:10.468Z,59.56
2017-09-30T11:25:10.200Z,60.79
2017-09-30T11:26:10.291Z,62.82
2017-09-30T11:27:09.611Z,63.53
2017-09-30T11:28:09.637Z,61.97
2017-09-30T11:29:09.604Z,61.96
2017-09-30T11:30:09.756Z,60.31
2017-09-30T11:31:09.595Z,60.42
2017-09-30T11:32:09.675Z,61.03
2017-09-30T11:33:09.617Z,60.89
2017-09-30T11:34:09.594Z,60.24
2017-09-30T11:35:09.595Z,59.33
2017-09-30T11:36:10.448Z,59.92
2017-09-30T11:37:10.811Z,60.64
2017-09-30T11:38:10.477Z,61.67
2017-09-30T11:39:10.456Z,63.29
2017-09-30T11:40:10.458Z,62.63
2017-09-30T11:41:10.287Z,62.24
2017-09-30T11:42:10.359Z,63.35
2017-09-30T11:43:10.619Z,61.25
2017-09-30T11:44:09.680Z,62.65
2017-09-30T11:45:11.277Z,62.91
2017-09-30T11:46:09.735Z,64.08
2017-09-30T11:47:09.696Z,62.85
2017-09-30T11:48:09.660Z,64.47
2017-09-30T11:49:09.679Z,63.42
2017-09-30T11:50:09.829Z,64.76
2017-09-30T11:51:11.308Z,64.38
2017-09-30T11:52:09.740Z,63.70
2017-09-30T11:53:09.801Z,63.43
2017-09-30T11:54:09.787Z,63.56
2017-09-30T11:55:13.430Z,63.53
2017-09-30T11:56:09.970Z,63.82
2017-09-30T11:57:10.954Z,63.66
2017-09-30T11:58:10.796Z,63.68
2017-09-30T11:59:09.621Z,64.76
2017-09-30T12:00:09.662Z,64.75
2017-09-30T12:01:09.709Z,64.91
2017-09-30T12:02:09.681Z,65.76
2017-09-30T12:03:09.723Z,64.04
2017-09-30T12:04:09.696Z,64.22
2017-09-30T12:05:09.751Z,64.90
2017-09-30T12:06:09.651Z,64.78
2017-09-30T12:07:09.726Z,65.79
2017-09-30T12:08:09.792Z,64.86
2017-09-30T12:09:09.799Z,65.26
2017-09-30T12:10:09.753Z,64.69
2017-09-30T12:11:09.728Z,65.69
2017-09-30T12:12:11.057Z,66.06
2017-09-30T12:13:10.541Z,65.89
2017-09-30T12:14:11.109Z,66.06
2017-09-30T12:15:11.061Z,67.53
2017-09-30T12:16:11.265Z,67.04
2017-09-30T12:17:11.272Z,65.99
2017-09-30T12:18:10.438Z,66.53
2017-09-30T12:19:09.729Z,66.39
2017-09-30T12:20:09.735Z,68.36
2017-09-30T12:21:09.808Z,65.62
2017-09-30T12:22:09.790Z,68.56
2017-09-30T12:23:09.936Z,67.24
2017-09-30T12:24:09.783Z,67.67
2017-09-30T12:25:09.719Z,68.16
2017-09-30T12:26:09.779Z,68.08
2017-09-30T12:27:09.863Z,67.84
2017-09-30T12:28:09.819Z,66.97
2017-09-30T12:29:09.679Z,67.38
2017-09-30T12:30:10.647Z,66.26
2017-09-30T12:31:10.345Z,66.61
2017-09-30T12:32:09.684Z,65.71
2017-09-30T12:33:10.550Z,68.62
2017-09-30T12:34:10.624Z,66.75
2017-09-30T12:35:10.783Z,67.12
2017-09-30T12:36:11.550Z,66.84
2017-09-30T12:37:09.897Z,66.21
2017-09-30T12:38:16.058Z,66.71
2017-09-30T12:39:10.092Z,68.14
2017-09-30T12:40:09.956Z,67.03
2017-09-30T12:41:09.801Z,67.29
2017-09-30T12:42:09.854Z,67.41
2017-09-30T12:43:10.101Z,68.01
2017-09-30T12:44:09.931Z,66.67